Time;durP1;ratioP1;P1;durP2;ratioP2;P2;SDS_P1;SDS_P2;PMS_P1;PMS_P2;Temp;Humidity;BMP_temperature;BMP_pressure;BME280_temperature;BME280_humidity;BME280_pressure;Samples;Min_cycle;Max_cycle;Signal;HPM_P1;HPM_P2
2023/03/09 00:02:12;;;;;;;;;;;;;;;;;;7373215;19;1853;-67
2023/03/09 00:04:41;;;;;;;;;;;;;;;;;;7376060;19;803;-67
2023/03/09 00:07:09;;;;;;;;;;;;;;;;;;7376320;19;854;-67
2023/03/09 00:09:37;;;;;;;;;;;;;;;;;;7374906;19;821;-67
2023/03/09 00:12:05;;;;;;;;;;;;;;;;;;7373216;19;1875;-67
2023/03/09 00:14:33;;;;;;;;;;;;;;;;;;7373589;19;814;-68
2023/03/09 00:17:02;;;;;;;;;;;;;;;;;;7372441;19;1841;-67
2023/03/09 00:19:30;;;;;;;;;;;;;;;;;;7375976;19;1905;-66
2023/03/09 00:21:58;;;;;;;;;;;;;;;;;;7373294;19;1289;-66
2023/03/09 00:24:27;;;;;;;;;;;;;;;;;;7378482;19;1767;-66
2023/03/09 00:26:55;;;;;;;;;;;;;;;;;;7374302;19;866;-66
2023/03/09 00:29:23;;;;;;;;;;;;;;;;;;7372370;19;806;-66
2023/03/09 00:31:51;;;;;;;;;;;;;;;;;;7367372;19;1321;-66
2023/03/09 00:34:19;;;;;;;;;;;;;;;;;;7372790;19;1916;-66
2023/03/09 00:36:48;;;;;;;;;;;;;;;;;;7366583;19;1846;-66
2023/03/09 00:39:16;;;;;;;;;;;;;;;;;;7366099;19;774;-67
2023/03/09 00:41:44;;;;;;;;;;;;;;;;;;7368070;19;1277;-66
2023/03/09 00:44:12;;;;;;;;;;;;;;;;;;7370273;19;1758;-65
2023/03/09 00:46:40;;;;;;;;;;;;;;;;;;7369109;19;875;-66
2023/03/09 00:49:08;;;;;;;;;;;;;;;;;;7367501;19;920;-66
2023/03/09 00:51:37;;;;;;;;;;;;;;;;;;7367641;19;1321;-65
2023/03/09 00:54:05;;;;;;;;;;;;;;;;;;7373348;19;1897;-65
2023/03/09 00:56:34;;;;;;;;;;;;;;;;;;7368314;19;1833;-66
2023/03/09 00:59:02;;;;;;;;;;;;;;;;;;7366980;19;810;-66
2023/03/09 01:01:30;;;;;;;;;;;;;;;;;;7369009;19;1255;-66
2023/03/09 01:03:58;;;;;;;;;;;;;;;;;;7372831;19;1622;-66
2023/03/09 01:06:27;;;;;;;;;;;;;;;;;;7368938;19;849;-65
2023/03/09 01:08:55;;;;;;;;;;;;;;;;;;7368306;19;825;-67
2023/03/09 01:11:24;;;;;;;;;;;;;;;;;;7364826;19;842;-66
2023/03/09 01:13:52;;;;;;;;;;;;;;;;;;7370998;19;1853;-66
2023/03/09 01:16:20;;;;;;;;;;;;;;;;;;7368503;19;1854;-66
2023/03/09 01:18:49;;;;;;;;;;;;;;;;;;7368023;19;802;-67
2023/03/09 01:21:19;;;;;;;;;;;;;;;;;;7367139;19;865;-67
2023/03/09 01:23:47;;;;;;;;;;;;;;;;;;7368667;19;1936;-67
2023/03/09 01:26:15;;;;;;;;;;;;;;;;;;7367816;19;1805;-67
2023/03/09 01:28:43;;;;;;;;;;;;;;;;;;7364915;19;823;-68
2023/03/09 01:31:11;;;;;;;;;;;;;;;;;;7367399;19;850;-66
2023/03/09 01:33:42;;;;;;;;;;;;;;;;;;7366977;19;1918;-66
2023/03/09 01:36:10;;;;;;;;;;;;;;;;;;7366375;19;1842;-66
2023/03/09 01:38:38;;;;;;;;;;;;;;;;;;7366091;19;697;-66
2023/03/09 01:41:07;;;;;;;;;;;;;;;;;;7365278;19;822;-66
2023/03/09 01:43:39;;;;;;;;;;;;;;;;;;7365311;19;1929;-66
2023/03/09 01:46:07;;;;;;;;;;;;;;;;;;7364434;19;830;-66
2023/03/09 01:48:35;;;;;;;;;;;;;;;;;;7364517;19;795;-66
2023/03/09 01:51:03;;;;;;;;;;;;;;;;;;7364945;19;865;-67
2023/03/09 01:53:31;;;;;;;;;;;;;;;;;;7364743;19;1872;-66
2023/03/09 01:56:00;;;;;;;;;;;;;;;;;;7368844;19;2335;-67
2023/03/09 01:58:28;;;;;;;;;;;;;;;;;;7361045;19;1848;-67
2023/03/09 02:00:56;;;;;;;;;;;;;;;;;;7365380;19;827;-67
2023/03/09 02:03:24;;;;;;;;;;;;;;;;;;7364604;19;1907;-68
2023/03/09 02:05:52;;;;;;;;;;;;;;;;;;7364725;19;1854;-68
2023/03/09 02:08:21;;;;;;;;;;;;;;;;;;7364066;19;818;-68
2023/03/09 02:10:51;;;;;;;;;;;;;;;;;;7367343;19;2003;-67
2023/03/09 02:13:19;;;;;;;;;;;;;;;;;;7364056;19;1760;-67
2023/03/09 02:15:47;;;;;;;;;;;;;;;;;;7364140;19;845;-68
2023/03/09 02:18:15;;;;;;;;;;;;;;;;;;7360728;19;1854;-68
2023/03/09 02:20:44;;;;;;;;;;;;;;;;;;7363722;19;861;-68
2023/03/09 02:23:12;;;;;;;;;;;;;;;;;;7363099;19;1885;-67
2023/03/09 02:25:40;;;;;;;;;;;;;;;;;;7363866;19;851;-67
2023/03/09 02:28:10;;;;;;;;;;;;;;;;;;7363665;19;912;-67
2023/03/09 02:30:38;;;;;;;;;;;;;;;;;;7365029;19;803;-67
2023/03/09 02:33:09;;;;;;;;;;;;;;;;;;7362175;19;1927;-67
2023/03/09 02:35:39;;;;;;;;;;;;;;;;;;7364508;19;776;-67
2023/03/09 02:38:07;;;;;;;;;;;;;;;;;;7360562;19;1850;-67
2023/03/09 02:40:36;;;;;;;;;;;;;;;;;;7363371;19;767;-68
2023/03/09 02:43:09;;;;;;;;;;;;;;;;;;7364046;19;1741;-68
2023/03/09 02:45:37;;;;;;;;;;;;;;;;;;7364372;19;1876;-68
2023/03/09 02:48:06;;;;;;;;;;;;;;;;;;7361966;19;762;-68
2023/03/09 02:50:34;;;;;;;;;;;;;;;;;;7363678;19;779;-67
2023/03/09 02:53:03;;;;;;;;;;;;;;;;;;7362630;19;1692;-67
2023/03/09 02:55:33;;;;;;;;;;;;;;;;;;7363257;19;842;-67
2023/03/09 02:58:02;;;;;;;;;;;;;;;;;;7360669;19;1852;-68
2023/03/09 03:00:30;;;;;;;;;;;;;;;;;;7364645;19;1888;-67
2023/03/09 03:02:58;;;;;;;;;;;;;;;;;;7362884;19;2023;-67
2023/03/09 03:05:27;;;;;;;;;;;;;;;;;;7363320;19;793;-67
2023/03/09 03:07:55;;;;;;;;;;;;;;;;;;7362117;19;764;-68
2023/03/09 03:10:24;;;;;;;;;;;;;;;;;;7362516;19;883;-67
2023/03/09 03:12:52;;;;;;;;;;;;;;;;;;7362105;19;1594;-67
2023/03/09 03:15:20;;;;;;;;;;;;;;;;;;7364152;19;787;-68
2023/03/09 03:17:49;;;;;;;;;;;;;;;;;;7360720;19;1842;-67
2023/03/09 03:20:17;;;;;;;;;;;;;;;;;;7363596;19;803;-67
2023/03/09 03:22:48;;;;;;;;;;;;;;;;;;7361493;19;1910;-68
2023/03/09 03:25:20;;;;;;;;;;;;;;;;;;7362157;19;730;-67
2023/03/09 03:27:50;;;;;;;;;;;;;;;;;;7361590;19;771;-67
2023/03/09 03:30:19;;;;;;;;;;;;;;;;;;7361887;19;848;-67
2023/03/09 03:32:53;;;;;;;;;;;;;;;;;;7361278;19;1974;-67
2023/03/09 03:35:22;;;;;;;;;;;;;;;;;;7368771;19;774;-67
2023/03/09 03:37:51;;;;;;;;;;;;;;;;;;7366714;19;1857;-66
2023/03/09 03:40:19;;;;;;;;;;;;;;;;;;7368621;19;743;-66
2023/03/09 03:42:51;;;;;;;;;;;;;;;;;;7367730;19;1967;-66
2023/03/09 03:45:20;;;;;;;;;;;;;;;;;;7368336;19;814;-66
2023/03/09 03:47:48;;;;;;;;;;;;;;;;;;7367053;19;929;-66
2023/03/09 03:50:16;;;;;;;;;;;;;;;;;;7368594;19;821;-67
2023/03/09 03:52:54;;;;;;;;;;;;;;;;;;7367755;19;1776;-67
2023/03/09 03:55:22;;;;;;;;;;;;;;;;;;7368031;19;858;-67
2023/03/09 03:57:50;;;;;;;;;;;;;;;;;;7366409;19;1869;-66
2023/03/09 04:00:19;;;;;;;;;;;;;;;;;;7369610;19;912;-66
2023/03/09 04:02:48;;;;;;;;;;;;;;;;;;7366808;19;2042;-66
2023/03/09 04:05:22;;;;;;;;;;;;;;;;;;7370326;19;1889;-67
2023/03/09 04:07:51;;;;;;;;;;;;;;;;;;7369646;19;1884;-66
2023/03/09 04:10:19;;;;;;;;;;;;;;;;;;7367547;19;790;-67
2023/03/09 04:12:48;;;;;;;;;;;;;;;;;;7366741;19;1684;-67
2023/03/09 04:15:16;;;;;;;;;;;;;;;;;;7367759;19;830;-67
2023/03/09 04:17:47;;;;;;;;;;;;;;;;;;7366269;19;1834;-68
2023/03/09 04:20:15;;;;;;;;;;;;;;;;;;7367219;19;803;-68
2023/03/09 04:22:45;;;;;;;;;;;;;;;;;;7366994;19;1939;-68
2023/03/09 04:25:15;;;;;;;;;;;;;;;;;;7366997;19;912;-68
2023/03/09 04:27:44;;;;;;;;;;;;;;;;;;7367052;19;799;-68
2023/03/09 04:30:30;;;;;;;;;;;;;;;;;;7366542;19;774;-66
2023/03/09 04:33:00;;;;;;;;;;;;;;;;;;7366520;19;1899;-66
2023/03/09 04:35:28;;;;;;;;;;;;;;;;;;7367064;19;869;-66
2023/03/09 04:37:59;;;;;;;;;;;;;;;;;;7364725;19;1857;-66
2023/03/09 04:40:28;;;;;;;;;;;;;;;;;;7367446;19;792;-66
2023/03/09 04:42:59;;;;;;;;;;;;;;;;;;7366206;19;1933;-66
2023/03/09 04:45:27;;;;;;;;;;;;;;;;;;7370011;19;1557;-66
2023/03/09 04:47:57;;;;;;;;;;;;;;;;;;7365658;19;815;-66
2023/03/09 04:50:25;;;;;;;;;;;;;;;;;;7366445;19;791;-66
2023/03/09 04:52:58;;;;;;;;;;;;;;;;;;7365661;19;1983;-67
2023/03/09 04:55:27;;;;;;;;;;;;;;;;;;7366482;19;758;-66
2023/03/09 04:57:58;;;;;;;;;;;;;;;;;;7364472;19;1838;-66
2023/03/09 05:00:26;;;;;;;;;;;;;;;;;;7366962;19;1702;-66
2023/03/09 05:02:55;;;;;;;;;;;;;;;;;;7366124;19;1935;-66
2023/03/09 05:05:24;;;;;;;;;;;;;;;;;;7365853;19;892;-66
2023/03/09 05:07:57;;;;;;;;;;;;;;;;;;7365093;19;753;-67
2023/03/09 05:10:26;;;;;;;;;;;;;;;;;;7365649;19;945;-67
2023/03/09 05:12:57;;;;;;;;;;;;;;;;;;7365154;19;1921;-67
2023/03/09 05:15:28;;;;;;;;;;;;;;;;;;7367208;19;772;-67
2023/03/09 05:17:57;;;;;;;;;;;;;;;;;;7364836;19;1832;-67
2023/03/09 05:20:26;;;;;;;;;;;;;;;;;;7367620;19;821;-67
2023/03/09 05:23:02;;;;;;;;;;;;;;;;;;7366337;19;2257;-67
2023/03/09 05:25:31;;;;;;;;;;;;;;;;;;7366375;19;1020;-67
2023/03/09 05:28:01;;;;;;;;;;;;;;;;;;7365636;19;816;-66
2023/03/09 05:30:32;;;;;;;;;;;;;;;;;;7367674;19;1823;-67
2023/03/09 05:33:03;;;;;;;;;;;;;;;;;;7365045;19;1713;-66
2023/03/09 05:35:33;;;;;;;;;;;;;;;;;;7366427;19;709;-67
2023/03/09 05:38:03;;;;;;;;;;;;;;;;;;7364520;19;1849;-66
2023/03/09 05:40:32;;;;;;;;;;;;;;;;;;7365903;19;826;-67
2023/03/09 05:43:04;;;;;;;;;;;;;;;;;;7365187;19;1506;-67
2023/03/09 05:45:33;;;;;;;;;;;;;;;;;;7365675;19;1693;-67
2023/03/09 05:48:02;;;;;;;;;;;;;;;;;;7365109;19;815;-67
2023/03/09 05:50:31;;;;;;;;;;;;;;;;;;7367762;19;958;-67
2023/03/09 05:53:00;;;;;;;;;;;;;;;;;;7364714;19;1325;-66
2023/03/09 05:55:28;;;;;;;;;;;;;;;;;;7365084;19;775;-66
2023/03/09 05:57:56;;;;;;;;;;;;;;;;;;7362583;19;1850;-67
2023/03/09 06:00:26;;;;;;;;;;;;;;;;;;7364603;19;715;-66
2023/03/09 06:02:59;;;;;;;;;;;;;;;;;;7362596;19;1396;-67
2023/03/09 06:05:40;;;;;;;;;;;;;;;;;;7364823;19;579;-67
2023/03/09 06:08:09;;;;;;;;;;;;;;;;;;7363691;19;850;-67
2023/03/09 06:10:38;;;;;;;;;;;;;;;;;;7364730;19;779;-67
2023/03/09 06:13:07;;;;;;;;;;;;;;;;;;7360599;19;1361;-66
2023/03/09 06:15:37;;;;;;;;;;;;;;;;;;7365087;19;824;-66
2023/03/09 06:18:05;;;;;;;;;;;;;;;;;;7362798;19;1837;-67
2023/03/09 06:20:34;;;;;;;;;;;;;;;;;;7364200;19;819;-67
2023/03/09 06:23:03;;;;;;;;;;;;;;;;;;7361918;19;1358;-66
2023/03/09 06:25:31;;;;;;;;;;;;;;;;;;7363791;19;846;-67
2023/03/09 06:28:00;;;;;;;;;;;;;;;;;;7363318;19;846;-67
2023/03/09 06:30:32;;;;;;;;;;;;;;;;;;7363733;19;829;-68
2023/03/09 06:33:01;;;;;;;;;;;;;;;;;;7360559;19;1306;-67
2023/03/09 06:35:31;;;;;;;;;;;;;;;;;;7363099;19;726;-67
2023/03/09 06:38:01;;;;;;;;;;;;;;;;;;7364978;19;1955;-67
2023/03/09 06:40:29;;;;;;;;;;;;;;;;;;7366685;19;1646;-67
2023/03/09 06:42:58;;;;;;;;;;;;;;;;;;7359576;19;1286;-67
2023/03/09 06:45:26;;;;;;;;;;;;;;;;;;7363178;19;834;-67
2023/03/09 06:47:54;;;;;;;;;;;;;;;;;;7362384;19;789;-66
2023/03/09 06:50:23;;;;;;;;;;;;;;;;;;7363012;19;801;-67
2023/03/09 06:52:52;;;;;;;;;;;;;;;;;;7360793;19;1313;-67
2023/03/09 06:55:20;;;;;;;;;;;;;;;;;;7363097;19;823;-68
2023/03/09 06:57:54;;;;;;;;;;;;;;;;;;7361448;19;1894;-68
2023/03/09 07:00:22;;;;;;;;;;;;;;;;;;7364000;19;732;-66
2023/03/09 07:02:55;;;;;;;;;;;;;;;;;;7360749;19;1898;-67
2023/03/09 07:05:23;;;;;;;;;;;;;;;;;;7365872;19;1808;-67
2023/03/09 07:07:51;;;;;;;;;;;;;;;;;;7363931;19;1886;-67
2023/03/09 07:10:20;;;;;;;;;;;;;;;;;;7373032;19;1665;-68
2023/03/09 07:12:48;;;;;;;;;;;;;;;;;;7371497;19;1851;-67
2023/03/09 07:15:16;;;;;;;;;;;;;;;;;;7372802;19;1677;-66
2023/03/09 07:17:44;;;;;;;;;;;;;;;;;;7369309;19;1834;-67
2023/03/09 07:20:12;;;;;;;;;;;;;;;;;;7370165;19;858;-67
2023/03/09 07:22:40;;;;;;;;;;;;;;;;;;7368073;19;1277;-67
2023/03/09 07:25:09;;;;;;;;;;;;;;;;;;7369175;19;922;-67
2023/03/09 07:27:37;;;;;;;;;;;;;;;;;;7369074;19;849;-67
2023/03/09 07:30:05;;;;;;;;;;;;;;;;;;7370745;19;1789;-67
2023/03/09 07:32:33;;;;;;;;;;;;;;;;;;7368888;19;1907;-67
2023/03/09 07:35:01;;;;;;;;;;;;;;;;;;7369607;19;753;-67
2023/03/09 07:37:30;;;;;;;;;;;;;;;;;;7372950;19;1773;-68
2023/03/09 07:39:58;;;;;;;;;;;;;;;;;;7368003;19;1858;-67
2023/03/09 07:42:26;;;;;;;;;;;;;;;;;;7369712;19;1910;-68
2023/03/09 07:45:17;;;;;;;;;;;;;;;;;;7371520;19;1623;-68
2023/03/09 07:47:45;;;;;;;;;;;;;;;;;;7371742;19;1647;-68
2023/03/09 07:50:13;;;;;;;;;;;;;;;;;;7372902;19;1607;-68
2023/03/09 07:52:41;;;;;;;;;;;;;;;;;;7370190;19;1838;-68
2023/03/09 07:55:11;;;;;;;;;;;;;;;;;;7372165;19;1809;-68
2023/03/09 07:57:39;;;;;;;;;;;;;;;;;;7370930;19;1527;-68
2023/03/09 08:00:12;;;;;;;;;;;;;;;;;;7368105;19;1901;-68
2023/03/09 08:02:40;;;;;;;;;;;;;;;;;;7370920;19;1803;-68
2023/03/09 08:05:08;;;;;;;;;;;;;;;;;;7370417;19;1854;-68
2023/03/09 08:07:36;;;;;;;;;;;;;;;;;;7371551;19;1880;-67
2023/03/09 08:10:04;;;;;;;;;;;;;;;;;;7371199;19;1958;-68
2023/03/09 08:12:32;;;;;;;;;;;;;;;;;;7367049;19;1750;-68
2023/03/09 08:15:01;;;;;;;;;;;;;;;;;;7369453;19;1834;-68
2023/03/09 08:17:29;;;;;;;;;;;;;;;;;;7370931;19;1717;-68
2023/03/09 08:19:57;;;;;;;;;;;;;;;;;;7367208;19;1866;-67
2023/03/09 08:22:25;;;;;;;;;;;;;;;;;;7366930;19;1244;-67
2023/03/09 08:24:53;;;;;;;;;;;;;;;;;;7371785;19;1829;-68
2023/03/09 08:27:21;;;;;;;;;;;;;;;;;;7365467;19;806;-68
2023/03/09 08:29:50;;;;;;;;;;;;;;;;;;7370640;19;1849;-68
2023/03/09 08:32:18;;;;;;;;;;;;;;;;;;7370180;19;1822;-69
2023/03/09 08:34:46;;;;;;;;;;;;;;;;;;7368789;19;1624;-68
2023/03/09 08:37:14;;;;;;;;;;;;;;;;;;7368244;19;1734;-68
2023/03/09 08:39:42;;;;;;;;;;;;;;;;;;7364966;19;1922;-71
2023/03/09 08:42:11;;;;;;;;;;;;;;;;;;7367060;19;1864;-68
2023/03/09 08:44:39;;;;;;;;;;;;;;;;;;7369627;19;1882;-68
2023/03/09 08:47:07;;;;;;;;;;;;;;;;;;7369569;19;1913;-68
2023/03/09 08:49:37;;;;;;;;;;;;;;;;;;7366279;19;1845;-67
2023/03/09 08:52:05;;;;;;;;;;;;;;;;;;7366857;19;1863;-68
2023/03/09 08:54:33;;;;;;;;;;;;;;;;;;7370492;19;1545;-68
2023/03/09 08:57:01;;;;;;;;;;;;;;;;;;7369996;19;1866;-68
2023/03/09 08:59:31;;;;;;;;;;;;;;;;;;7368096;19;1861;-67
2023/03/09 09:01:59;;;;;;;;;;;;;;;;;;7367237;19;2199;-68
2023/03/09 09:04:28;;;;;;;;;;;;;;;;;;7369886;19;1563;-68
2023/03/09 09:06:56;;;;;;;;;;;;;;;;;;7368192;19;1883;-68
2023/03/09 09:09:24;;;;;;;;;;;;;;;;;;7366567;19;1836;-68
2023/03/09 09:11:52;;;;;;;;;;;;;;;;;;7367973;19;1832;-68
2023/03/09 09:14:21;;;;;;;;;;;;;;;;;;7369087;19;1824;-68
2023/03/09 09:16:50;;;;;;;;;;;;;;;;;;7370049;19;1623;-68
2023/03/09 09:19:18;;;;;;;;;;;;;;;;;;7365825;19;1877;-68
2023/03/09 09:21:48;;;;;;;;;;;;;;;;;;7368042;19;1829;-68
2023/03/09 09:24:16;;;;;;;;;;;;;;;;;;7366504;19;806;-68
2023/03/09 09:26:44;;;;;;;;;;;;;;;;;;7370321;19;1843;-67
2023/03/09 09:29:12;;;;;;;;;;;;;;;;;;7365021;19;806;-67
2023/03/09 09:31:40;;;;;;;;;;;;;;;;;;7364990;19;1711;-69
2023/03/09 09:34:11;;;;;;;;;;;;;;;;;;7366323;19;1866;-68
2023/03/09 09:36:39;;;;;;;;;;;;;;;;;;7367576;19;1917;-68
2023/03/09 09:39:07;;;;;;;;;;;;;;;;;;7367754;19;1846;-68
2023/03/09 09:41:35;;;;;;;;;;;;;;;;;;7370031;19;1892;-69
2023/03/09 09:44:03;;;;;;;;;;;;;;;;;;7366310;19;1897;-68
2023/03/09 09:46:31;;;;;;;;;;;;;;;;;;7368716;19;1814;-68
2023/03/09 09:49:00;;;;;;;;;;;;;;;;;;7366312;19;848;-68
2023/03/09 09:51:29;;;;;;;;;;;;;;;;;;7369522;19;1863;-68
2023/03/09 09:53:57;;;;;;;;;;;;;;;;;;7367320;19;1887;-68
2023/03/09 09:56:25;;;;;;;;;;;;;;;;;;7368250;19;1875;-67
2023/03/09 09:58:54;;;;;;;;;;;;;;;;;;7363660;19;1822;-67
2023/03/09 10:01:22;;;;;;;;;;;;;;;;;;7369483;19;1870;-66
2023/03/09 10:03:50;;;;;;;;;;;;;;;;;;7364343;19;1853;-68
2023/03/09 10:06:18;;;;;;;;;;;;;;;;;;7365581;19;872;-67
2023/03/09 10:08:46;;;;;;;;;;;;;;;;;;7363724;19;838;-67
2023/03/09 10:11:15;;;;;;;;;;;;;;;;;;7365934;19;895;-67
2023/03/09 10:13:43;;;;;;;;;;;;;;;;;;7362620;19;1247;-67
2023/03/09 10:16:11;;;;;;;;;;;;;;;;;;7365528;19;877;-67
2023/03/09 10:18:39;;;;;;;;;;;;;;;;;;7364895;19;1853;-68
2023/03/09 10:21:07;;;;;;;;;;;;;;;;;;7365041;19;731;-68
2023/03/09 10:23:35;;;;;;;;;;;;;;;;;;7361901;19;1266;-68
2023/03/09 10:26:04;;;;;;;;;;;;;;;;;;7364544;19;790;-68
2023/03/09 10:28:32;;;;;;;;;;;;;;;;;;7363408;19;862;-68
2023/03/09 10:31:00;;;;;;;;;;;;;;;;;;7363809;19;861;-68
2023/03/09 10:33:28;;;;;;;;;;;;;;;;;;7361762;19;1282;-68
2023/03/09 10:35:56;;;;;;;;;;;;;;;;;;7364608;19;915;-68
2023/03/09 10:38:25;;;;;;;;;;;;;;;;;;7362457;19;794;-68
2023/03/09 10:40:53;;;;;;;;;;;;;;;;;;7362192;19;1856;-68
2023/03/09 10:43:21;;;;;;;;;;;;;;;;;;7360102;19;1308;-68
2023/03/09 10:45:50;;;;;;;;;;;;;;;;;;7362255;19;829;-68
2023/03/09 10:48:18;;;;;;;;;;;;;;;;;;7361255;19;869;-68
2023/03/09 10:50:46;;;;;;;;;;;;;;;;;;7361947;19;771;-67
2023/03/09 10:53:14;;;;;;;;;;;;;;;;;;7361331;19;1180;-68
2023/03/09 10:55:42;;;;;;;;;;;;;;;;;;7363456;19;791;-68
2023/03/09 10:58:10;;;;;;;;;;;;;;;;;;7362619;19;874;-68
2023/03/09 11:00:38;;;;;;;;;;;;;;;;;;7360067;19;1842;-68
2023/03/09 11:03:07;;;;;;;;;;;;;;;;;;7359644;19;1284;-68
2023/03/09 11:05:35;;;;;;;;;;;;;;;;;;7361779;19;811;-68
2023/03/09 11:08:07;;;;;;;;;;;;;;;;;;7360698;19;895;-67
2023/03/09 11:10:35;;;;;;;;;;;;;;;;;;7360648;19;794;-68
2023/03/09 11:13:04;;;;;;;;;;;;;;;;;;7359357;19;1337;-67
2023/03/09 11:15:32;;;;;;;;;;;;;;;;;;7362777;19;798;-68
2023/03/09 11:18:00;;;;;;;;;;;;;;;;;;7362101;19;841;-67
2023/03/09 11:20:28;;;;;;;;;;;;;;;;;;7361046;19;1838;-68
2023/03/09 11:22:56;;;;;;;;;;;;;;;;;;7360392;19;1357;-70
2023/03/09 11:25:24;;;;;;;;;;;;;;;;;;7362605;19;817;-68
2023/03/09 11:27:53;;;;;;;;;;;;;;;;;;7361119;19;808;-68
2023/03/09 11:30:21;;;;;;;;;;;;;;;;;;7362489;19;849;-68
2023/03/09 11:32:49;;;;;;;;;;;;;;;;;;7360213;19;1239;-68
2023/03/09 11:35:17;;;;;;;;;;;;;;;;;;7361984;19;824;-68
2023/03/09 11:37:45;;;;;;;;;;;;;;;;;;7361414;19;848;-68
2023/03/09 11:40:13;;;;;;;;;;;;;;;;;;7360214;19;1845;-67
2023/03/09 11:42:41;;;;;;;;;;;;;;;;;;7360007;19;1326;-67
2023/03/09 11:45:10;;;;;;;;;;;;;;;;;;7360513;19;802;-67
2023/03/09 11:47:38;;;;;;;;;;;;;;;;;;7361137;19;857;-67
2023/03/09 11:50:06;;;;;;;;;;;;;;;;;;7362082;19;861;-67
2023/03/09 11:52:34;;;;;;;;;;;;;;;;;;7360302;19;1322;-67
2023/03/09 11:55:03;;;;;;;;;;;;;;;;;;7365442;19;804;-67
2023/03/09 11:57:31;;;;;;;;;;;;;;;;;;7367834;19;866;-67
2023/03/09 11:59:59;;;;;;;;;;;;;;;;;;7367029;19;1855;-67
2023/03/09 12:02:27;;;;;;;;;;;;;;;;;;7367207;19;1325;-67
2023/03/09 12:04:55;;;;;;;;;;;;;;;;;;7368334;19;770;-67
2023/03/09 12:07:23;;;;;;;;;;;;;;;;;;7368557;19;802;-67
2023/03/09 12:09:51;;;;;;;;;;;;;;;;;;7367451;19;825;-68
2023/03/09 12:12:20;;;;;;;;;;;;;;;;;;7367446;19;1270;-67
2023/03/09 12:14:48;;;;;;;;;;;;;;;;;;7368375;19;865;-67
2023/03/09 12:17:16;;;;;;;;;;;;;;;;;;7366894;19;791;-68
2023/03/09 12:19:44;;;;;;;;;;;;;;;;;;7365836;19;1851;-68
2023/03/09 12:22:12;;;;;;;;;;;;;;;;;;7367346;19;1297;-67
2023/03/09 12:24:41;;;;;;;;;;;;;;;;;;7369160;19;1838;-67
2023/03/09 12:27:09;;;;;;;;;;;;;;;;;;7371111;19;1666;-67
2023/03/09 12:29:37;;;;;;;;;;;;;;;;;;7366804;19;860;-67
2023/03/09 12:32:05;;;;;;;;;;;;;;;;;;7367168;19;1277;-68
2023/03/09 12:34:34;;;;;;;;;;;;;;;;;;7368235;19;877;-68
2023/03/09 12:37:02;;;;;;;;;;;;;;;;;;7367536;19;738;-68
2023/03/09 12:39:31;;;;;;;;;;;;;;;;;;7366282;19;1849;-68
2023/03/09 12:42:00;;;;;;;;;;;;;;;;;;7367301;19;1246;-69
2023/03/09 12:44:28;;;;;;;;;;;;;;;;;;7367763;19;792;-68
2023/03/09 12:46:56;;;;;;;;;;;;;;;;;;7367817;19;829;-68
2023/03/09 12:49:24;;;;;;;;;;;;;;;;;;7367110;19;1551;-68
2023/03/09 12:51:52;;;;;;;;;;;;;;;;;;7366657;19;1258;-68
2023/03/09 12:54:20;;;;;;;;;;;;;;;;;;7366117;19;837;-68
2023/03/09 12:56:49;;;;;;;;;;;;;;;;;;7366724;19;761;-68
2023/03/09 12:59:17;;;;;;;;;;;;;;;;;;7366894;19;892;-69
2023/03/09 13:01:45;;;;;;;;;;;;;;;;;;7369246;19;1853;-68
2023/03/09 13:04:14;;;;;;;;;;;;;;;;;;7366922;19;872;-68
2023/03/09 13:06:42;;;;;;;;;;;;;;;;;;7366570;19;870;-68
2023/03/09 13:09:10;;;;;;;;;;;;;;;;;;7367264;19;809;-68
2023/03/09 13:11:40;;;;;;;;;;;;;;;;;;7366454;19;1271;-69
2023/03/09 13:14:08;;;;;;;;;;;;;;;;;;7366899;19;896;-69
2023/03/09 13:16:36;;;;;;;;;;;;;;;;;;7366902;19;791;-69
2023/03/09 13:19:05;;;;;;;;;;;;;;;;;;7366336;19;817;-68
2023/03/09 13:21:33;;;;;;;;;;;;;;;;;;7363762;19;1914;-68
2023/03/09 13:24:01;;;;;;;;;;;;;;;;;;7366330;19;934;-69
2023/03/09 13:26:29;;;;;;;;;;;;;;;;;;7367426;19;1886;-68
2023/03/09 13:28:57;;;;;;;;;;;;;;;;;;7365779;19;748;-68
2023/03/09 13:31:26;;;;;;;;;;;;;;;;;;7367241;19;869;-68
2023/03/09 13:33:54;;;;;;;;;;;;;;;;;;7364523;19;1903;-69
2023/03/09 13:36:23;;;;;;;;;;;;;;;;;;7370339;19;1873;-68
2023/03/09 13:38:51;;;;;;;;;;;;;;;;;;7366817;19;766;-68
2023/03/09 13:41:20;;;;;;;;;;;;;;;;;;7364517;19;1837;-69
2023/03/09 13:43:48;;;;;;;;;;;;;;;;;;7364208;19;1294;-68
2023/03/09 13:46:16;;;;;;;;;;;;;;;;;;7367458;19;782;-68
2023/03/09 13:48:44;;;;;;;;;;;;;;;;;;7372261;19;720;-69
2023/03/09 13:51:12;;;;;;;;;;;;;;;;;;7372627;19;1131;-69
2023/03/09 13:53:41;;;;;;;;;;;;;;;;;;7369460;19;1343;-69
2023/03/09 13:56:09;;;;;;;;;;;;;;;;;;7373616;19;841;-69
2023/03/09 13:58:37;;;;;;;;;;;;;;;;;;7373562;19;748;-68
2023/03/09 14:01:05;;;;;;;;;;;;;;;;;;7371394;19;1850;-69
2023/03/09 14:03:33;;;;;;;;;;;;;;;;;;7371399;19;1290;-69
2023/03/09 14:06:02;;;;;;;;;;;;;;;;;;7377985;19;842;-69
2023/03/09 14:08:30;;;;;;;;;;;;;;;;;;7379225;19;825;-69
2023/03/09 14:10:59;;;;;;;;;;;;;;;;;;7380438;19;881;-69
2023/03/09 14:13:27;;;;;;;;;;;;;;;;;;7370845;19;1286;-68
2023/03/09 14:15:55;;;;;;;;;;;;;;;;;;7368997;19;1429;-69
2023/03/09 14:18:23;;;;;;;;;;;;;;;;;;7366264;19;876;-68
2023/03/09 14:20:52;;;;;;;;;;;;;;;;;;7367292;19;1857;-68
2023/03/09 14:23:20;;;;;;;;;;;;;;;;;;7365990;19;1278;-68
2023/03/09 14:25:48;;;;;;;;;;;;;;;;;;7367634;19;842;-68
2023/03/09 14:28:16;;;;;;;;;;;;;;;;;;7366743;19;852;-68
2023/03/09 14:30:44;;;;;;;;;;;;;;;;;;7366487;19;1856;-69
2023/03/09 14:33:12;;;;;;;;;;;;;;;;;;7369081;19;1887;-69
2023/03/09 14:35:40;;;;;;;;;;;;;;;;;;7366367;19;872;-69
2023/03/09 14:38:09;;;;;;;;;;;;;;;;;;7364730;19;832;-69
2023/03/09 14:40:38;;;;;;;;;;;;;;;;;;7364859;19;1841;-69
2023/03/09 14:43:06;;;;;;;;;;;;;;;;;;7364172;19;1339;-69
2023/03/09 14:45:34;;;;;;;;;;;;;;;;;;7365106;19;2107;-69
2023/03/09 14:48:02;;;;;;;;;;;;;;;;;;7364924;19;831;-70
2023/03/09 14:50:31;;;;;;;;;;;;;;;;;;7365599;19;853;-69
2023/03/09 14:52:59;;;;;;;;;;;;;;;;;;7363070;19;1376;-70
2023/03/09 14:55:27;;;;;;;;;;;;;;;;;;7365625;19;822;-69
2023/03/09 14:57:55;;;;;;;;;;;;;;;;;;7366456;19;1746;-69
2023/03/09 15:00:24;;;;;;;;;;;;;;;;;;7363833;19;1840;-69
2023/03/09 15:02:52;;;;;;;;;;;;;;;;;;7362896;19;1328;-69
2023/03/09 15:05:20;;;;;;;;;;;;;;;;;;7363212;19;791;-70
2023/03/09 15:07:48;;;;;;;;;;;;;;;;;;7364046;19;850;-70
2023/03/09 15:10:16;;;;;;;;;;;;;;;;;;7363662;19;826;-70
2023/03/09 15:12:45;;;;;;;;;;;;;;;;;;7364267;19;1966;-69
2023/03/09 15:15:13;;;;;;;;;;;;;;;;;;7363276;19;814;-69
2023/03/09 15:17:41;;;;;;;;;;;;;;;;;;7363795;19;862;-69
2023/03/09 15:20:09;;;;;;;;;;;;;;;;;;7363758;19;827;-69
2023/03/09 15:22:37;;;;;;;;;;;;;;;;;;7361104;19;1381;-69
2023/03/09 15:25:06;;;;;;;;;;;;;;;;;;7366138;19;1837;-69
2023/03/09 15:27:34;;;;;;;;;;;;;;;;;;7363589;19;787;-69
2023/03/09 15:30:02;;;;;;;;;;;;;;;;;;7366525;19;833;-68
2023/03/09 15:32:30;;;;;;;;;;;;;;;;;;7369294;19;1281;-69
2023/03/09 15:34:59;;;;;;;;;;;;;;;;;;7370180;19;787;-69
2023/03/09 15:37:27;;;;;;;;;;;;;;;;;;7370109;19;741;-69
2023/03/09 15:39:55;;;;;;;;;;;;;;;;;;7372337;19;2286;-69
2023/03/09 15:42:23;;;;;;;;;;;;;;;;;;7366643;19;1892;-70
2023/03/09 15:44:51;;;;;;;;;;;;;;;;;;7373775;19;1869;-70
2023/03/09 15:47:19;;;;;;;;;;;;;;;;;;7367897;19;845;-69
2023/03/09 15:49:47;;;;;;;;;;;;;;;;;;7371151;19;1953;-69
2023/03/09 15:52:16;;;;;;;;;;;;;;;;;;7370750;19;1764;-69
2023/03/09 15:54:44;;;;;;;;;;;;;;;;;;7369138;19;824;-69
2023/03/09 15:57:12;;;;;;;;;;;;;;;;;;7369780;19;807;-69
2023/03/09 15:59:40;;;;;;;;;;;;;;;;;;7370891;19;1780;-68
2023/03/09 16:02:08;;;;;;;;;;;;;;;;;;7368554;19;1841;-69
2023/03/09 16:04:36;;;;;;;;;;;;;;;;;;7371866;19;2114;-69
2023/03/09 16:07:05;;;;;;;;;;;;;;;;;;7372339;19;877;-69
2023/03/09 16:09:33;;;;;;;;;;;;;;;;;;7368313;19;811;-69
2023/03/09 16:12:01;;;;;;;;;;;;;;;;;;7368454;19;1340;-69
2023/03/09 16:14:29;;;;;;;;;;;;;;;;;;7369685;19;818;-69
2023/03/09 16:16:57;;;;;;;;;;;;;;;;;;7368991;19;776;-69
2023/03/09 16:19:25;;;;;;;;;;;;;;;;;;7368933;19;794;-69
2023/03/09 16:21:53;;;;;;;;;;;;;;;;;;7371703;19;1879;-69
2023/03/09 16:24:22;;;;;;;;;;;;;;;;;;7370421;19;1875;-70
2023/03/09 16:26:50;;;;;;;;;;;;;;;;;;7370307;19;829;-68
2023/03/09 16:29:22;;;;;;;;;;;;;;;;;;7369254;19;850;-69
2023/03/09 16:31:50;;;;;;;;;;;;;;;;;;7370387;19;2133;-73
2023/03/09 16:34:18;;;;;;;;;;;;;;;;;;7368827;19;849;-69
2023/03/09 16:36:47;;;;;;;;;;;;;;;;;;7369324;19;778;-70
2023/03/09 16:39:16;;;;;;;;;;;;;;;;;;7368857;19;763;-68
2023/03/09 16:41:44;;;;;;;;;;;;;;;;;;7366790;19;1868;-68
2023/03/09 16:44:12;;;;;;;;;;;;;;;;;;7369279;19;866;-68
2023/03/09 16:46:40;;;;;;;;;;;;;;;;;;7371147;19;2111;-67
2023/03/09 16:49:10;;;;;;;;;;;;;;;;;;7367264;19;836;-67
2023/03/09 16:51:38;;;;;;;;;;;;;;;;;;7368340;19;1282;-69
2023/03/09 16:54:06;;;;;;;;;;;;;;;;;;7368359;19;808;-67
2023/03/09 16:56:35;;;;;;;;;;;;;;;;;;7367927;19;766;-68
2023/03/09 16:59:03;;;;;;;;;;;;;;;;;;7367748;19;894;-68
2023/03/09 17:01:31;;;;;;;;;;;;;;;;;;7365369;19;1885;-69
2023/03/09 17:03:59;;;;;;;;;;;;;;;;;;7368101;19;861;-69
2023/03/09 17:06:27;;;;;;;;;;;;;;;;;;7369185;19;801;-68
2023/03/09 17:08:56;;;;;;;;;;;;;;;;;;7367351;19;776;-68
2023/03/09 17:11:24;;;;;;;;;;;;;;;;;;7368989;19;1614;-68
2023/03/09 17:13:52;;;;;;;;;;;;;;;;;;7370104;19;1519;-68
2023/03/09 17:16:20;;;;;;;;;;;;;;;;;;7368314;19;868;-68
2023/03/09 17:18:48;;;;;;;;;;;;;;;;;;7367259;19;857;-68
2023/03/09 17:21:16;;;;;;;;;;;;;;;;;;7368061;19;1845;-67